Chandler, MN (56122)

3:36 PM CDT on July 23, 2016 (GMT -0500)
East Lake Wilson | | Change Station

Elev 1644 ft 43.99 °N, 95.92 °W | Updated 7 seconds ago

Clear
Clear
87.8 °F
Feels Like 97 °F
N
5.8
Wind Variable Wind from SW
Gusts 7.4 mph

Today
High -- | Low -- °F
--% Chance of Precip.
Yesterday
High -- | Low -- °F
Precip. -- in
Pressure 29.81 in
Visibility 10.0 miles
Clouds Clear
Heat Index 97 °F
Dew Point 74 °F
Humidity 64%
Rainfall 0.32 in
Snow Depth Not available.
6:03 AM 8:56 PM
Waning Gibbous, 83% visible
METAR KDVP 232014Z AUTO 19008KT 10SM CLR 31/23 A2981 RMK AO2 T03080227
Pressure 29.81 in
Visibility 10.0 miles
Clouds Clear
Heat Index 97 °F
Dew Point 74 °F
Humidity 64%
Rainfall 0.32 in
Snow Depth Not available.
6:03 AM 8:56 PM
Waning Gibbous, 83% visible
METAR KDVP 232014Z AUTO 19008KT 10SM CLR 31/23 A2981 RMK AO2 T03080227

10-Day Weather Forecast

Almanac

Astronomy

Jul. 23, 2016 Rise Set
Actual Time
Civil Twilight
Nautical Twilight
Astronomical Twilight
Moon
Length of Visible Light
Length of Day
Tomorrow will be .
, % of the Moon is Illuminated

Today's Extremes

State Highs State Lows

Community

WunderPhotos

Upload Photos

1,926,918 photos uploaded!

WunderBlog® & News

Nearby

Air Quality

  Air Quality AQ Index Pollutant
Not available.

Snow Depth

Station Depth Elevation

Earthquake Activity

City Distance Mag. Time & Date
Minimum magnitude displayed is 2.5.

Coastal Water Temperatures

Place Temperature

Stations

Nearby Weather Stations

Station Location Temp. Windchill Dew Point Humidity Wind Precip. Elev Updated Type
                   

Watches & Warnings

There are currently no watches in effect.